Summersville, WV

3:56 AM EDT on June 03, 2015 (GMT -0400)
Yeager Airport | | Change Station
CLOSE
Current Station
Airport
Location: Charleston,
Elevation: 981 ft
Nearby Weather Stations

Elev 981 ft 38.38 °N, 81.59 °W | Updated 1 hour ago

Overcast
Overcast
59 °F
Feels Like 59 °F
N
0
Wind Variable Wind from North

Today
High -- | Low -- °F
--% Chance of Precip.
Yesterday
High -- | Low -- °F
Precip. -- in
6:01 AM 8:42 PM
Full, 100% visible
Pressure 30.05 in
Visibility 6.0 miles
Clouds Mostly Cloudy 800 ft
Overcast 2900 ft
Dew Point 56 °F
Humidity 90%
Rainfall 0.00 in
Snow Depth Not available.
UV 0 out of 12
Pollen .70 out of 12
Air Quality Not available.
Flu Activity Sporadic
METAR KCRW 030654Z 00000KT 6SM BR BKN008 OVC029 15/13 A3006 RMK AO2 SLP175 VLY FG T01500133

More Conditions Fewer Conditions

Pressure 30.05 in
Visibility 6.0 miles
Clouds Mostly Cloudy 800 ft
Overcast 2900 ft
Dew Point 56 °F
Humidity 90%
Rainfall 0.00 in
Snow Depth Not available.
UV 0 out of 12
Pollen .70 out of 12
Air Quality Not available.
Flu Activity Sporadic
METAR KCRW 030654Z 00000KT 6SM BR BKN008 OVC029 15/13 A3006 RMK AO2 SLP175 VLY FG T01500133

More Conditions Fewer Conditions

10-Day Weather Forecast

×

Almanac

Astronomy

Jun. 03, 2015 Rise Set
Actual Time
Civil Twilight
Nautical Twilight
Astronomical Twilight
Moon
Length of Visible Light
Length of Day
Tomorrow will be .
, % of the Moon is Illuminated

Today's Extremes

State Highs State Lows

Community

WunderPhotos

Upload Photos

1,826,187 photos uploaded!

WunderBlogs® & News

Nearby

Air Quality

  Air Quality AQ Index Pollutant
Not available.

Snow Depth

Station Depth Elevation

Earthquake Activity

City Distance Mag. Time & Date
Minimum magnitude displayed is 2.5.

Coastal Water Temperatures

Place Temperature

Stations

Nearby Weather Stations

Station Location Temp. Windchill Dew Point Humidity Wind Precip. Elev Updated Type